Fabre, Canada
Current Conditions -  °F | °C
As of 3:00 PM on Thursday 18 Dec 2014 (Local Time) from CYXR Reporting Station
Clear Clear  
Wind Chill: -1°   Ceiling: Unl
Heat Index: 12°   Visibility: 9mi
Dew Point:   Wind: 10mph
Humidity: 79%   Direction: 310°NW
Pressure: 30.13"   Gusts: NA
Location:  47.2°N, 79.37°W
Report Text: CYXR 182000Z AUTO 31009KT 9SM CLR M11/M14 A3013 RMK SLP222
Loading
Personal Weather Stations






























Interactive Weather Map New forecast layout! Learn more

10-Day Weather Forecast

Advertisements
Track Severe Weather on mobile